createdAt,value
2019-03-10T00:00:40.244Z,100161.78
2019-03-10T00:03:12.209Z,100177.00
2019-03-10T00:05:44.203Z,100162.15
2019-03-10T00:08:16.109Z,100176.97
2019-03-10T00:10:48.075Z,100172.59
2019-03-10T00:13:19.980Z,100167.36
2019-03-10T00:15:51.885Z,100172.20
2019-03-10T00:18:23.802Z,100171.76
2019-03-10T00:20:56.846Z,100187.11
2019-03-10T00:23:28.822Z,100190.98
2019-03-10T00:26:01.838Z,100204.55
2019-03-10T00:28:33.765Z,100200.66
2019-03-10T00:31:05.662Z,100194.61
2019-03-10T00:33:37.504Z,100202.05
2019-03-10T00:36:09.440Z,100205.11
2019-03-10T00:39:07.619Z,100208.17
2019-03-10T00:42:18.854Z,100213.86
2019-03-10T00:45:58.839Z,100212.54
2019-03-10T00:49:28.388Z,100226.52
2019-03-10T00:52:32.055Z,100221.71
2019-03-10T00:55:04.013Z,100215.16
2019-03-10T00:57:35.896Z,100214.70
2019-03-10T01:00:19.296Z,100201.62
2019-03-10T01:02:51.268Z,100209.03
2019-03-10T01:05:23.090Z,100212.53
2019-03-10T01:07:55.055Z,100202.49
2019-03-10T01:10:26.904Z,100197.27
2019-03-10T01:12:58.989Z,100193.77
2019-03-10T01:15:31.273Z,100195.52
2019-03-10T01:18:04.271Z,100190.72
2019-03-10T01:20:36.356Z,100189.39
2019-03-10T01:23:08.162Z,100197.67
2019-03-10T01:25:40.007Z,100197.66
2019-03-10T01:28:11.912Z,100194.16
2019-03-10T01:30:56.051Z,100187.16
2019-03-10T01:34:10.986Z,100188.05
2019-03-10T01:36:42.915Z,100179.79
2019-03-10T01:39:14.911Z,100173.23
2019-03-10T01:41:46.811Z,100170.62
2019-03-10T01:44:18.726Z,100164.96
2019-03-10T01:46:50.596Z,100160.56
2019-03-10T01:49:24.978Z,100163.20
2019-03-10T01:51:56.831Z,100148.80
2019-03-10T01:54:28.697Z,100148.80
2019-03-10T01:57:00.527Z,100149.25
2019-03-10T01:59:32.391Z,100141.39
2019-03-10T02:02:04.179Z,100139.22
2019-03-10T02:04:36.014Z,100140.05
2019-03-10T02:07:07.826Z,100140.55
2019-03-10T02:09:39.751Z,100136.59
2019-03-10T02:12:11.717Z,100134.86
2019-03-10T02:14:43.627Z,100133.10
2019-03-10T02:17:15.616Z,100136.17
2019-03-10T02:19:47.480Z,100134.00
2019-03-10T02:22:19.337Z,100145.31
2019-03-10T02:24:51.279Z,100144.42
2019-03-10T02:27:23.180Z,100144.02
2019-03-10T02:29:55.026Z,100149.67
2019-03-10T02:32:26.877Z,100152.27
2019-03-10T02:34:58.732Z,100149.23
2019-03-10T02:37:30.643Z,100146.65
2019-03-10T02:40:02.482Z,100143.16
2019-03-10T02:42:35.531Z,100145.31
2019-03-10T02:45:08.121Z,100140.52
2019-03-10T02:47:40.055Z,100147.08
2019-03-10T02:50:12.407Z,100141.83
2019-03-10T02:52:45.424Z,100143.14
2019-03-10T02:55:17.305Z,100136.18
2019-03-10T02:57:49.195Z,100128.78
2019-03-10T03:00:21.115Z,100133.14
2019-03-10T03:02:52.974Z,100126.62
2019-03-10T03:05:24.801Z,100128.37
2019-03-10T03:07:56.655Z,100116.60
2019-03-10T03:10:28.490Z,100116.60
2019-03-10T03:13:00.350Z,100102.64
2019-03-10T03:15:32.168Z,100095.23
2019-03-10T03:18:04.048Z,100092.19
2019-03-10T03:20:35.957Z,100085.64
2019-03-10T03:23:07.873Z,100078.67
2019-03-10T03:25:39.711Z,100082.59
2019-03-10T03:28:11.754Z,100076.92
2019-03-10T03:30:43.568Z,100069.97
2019-03-10T03:33:15.496Z,100073.45
2019-03-10T03:35:59.889Z,100070.81
2019-03-10T03:38:48.852Z,100068.62
2019-03-10T03:41:21.608Z,100065.13
2019-03-10T03:43:53.466Z,100064.25
2019-03-10T03:46:25.257Z,100061.23
2019-03-10T03:48:57.156Z,100059.89
2019-03-10T03:51:29.018Z,100047.66
2019-03-10T03:54:00.942Z,100056.80
2019-03-10T03:56:32.750Z,100056.83
2019-03-10T03:59:04.680Z,100049.39
2019-03-10T04:01:51.020Z,100054.16
2019-03-10T04:04:22.862Z,100056.78
2019-03-10T04:06:55.112Z,100045.38
2019-03-10T04:09:27.057Z,100040.94
2019-03-10T04:11:58.995Z,100055.78
2019-03-10T04:14:30.822Z,100064.44
2019-03-10T04:17:02.625Z,100055.69
2019-03-10T04:19:34.453Z,100057.41
2019-03-10T04:22:06.372Z,100057.88
2019-03-10T04:24:38.299Z,100047.88
2019-03-10T04:27:10.242Z,100040.45
2019-03-10T04:29:42.106Z,100040.85
2019-03-10T04:32:14.020Z,100034.30
2019-03-10T04:34:45.884Z,100036.44
2019-03-10T04:37:17.686Z,100043.91
2019-03-10T04:39:49.488Z,100034.74
2019-03-10T04:42:21.425Z,100025.56
2019-03-10T04:44:53.314Z,100023.37
2019-03-10T04:47:25.173Z,100023.77
2019-03-10T04:49:57.067Z,100015.85
2019-03-10T04:52:28.923Z,100008.91
2019-03-10T04:55:19.622Z,100011.55
2019-03-10T04:58:16.400Z,100004.11
2019-03-10T05:00:51.126Z,100012.84
2019-03-10T05:03:22.984Z,100011.97
2019-03-10T05:05:54.841Z,100028.91
2019-03-10T05:08:26.746Z,100025.36
2019-03-10T05:10:58.706Z,100032.35
2019-03-10T05:13:31.666Z,100033.59
2019-03-10T05:16:03.496Z,100033.16
2019-03-10T05:18:35.362Z,100032.28
2019-03-10T05:21:07.178Z,100029.22
2019-03-10T05:23:44.018Z,100031.36
2019-03-10T05:26:17.096Z,100025.59
2019-03-10T05:28:50.110Z,100032.27
2019-03-10T05:31:22.024Z,100030.09
2019-03-10T05:33:53.880Z,100031.40
2019-03-10T05:36:25.770Z,100031.85
2019-03-10T05:38:57.654Z,100027.52
2019-03-10T05:41:29.479Z,100027.97
2019-03-10T05:44:01.341Z,100031.45
2019-03-10T05:46:33.203Z,100030.09
2019-03-10T05:49:05.014Z,100034.08
2019-03-10T05:51:36.908Z,100036.27
2019-03-10T05:54:09.694Z,100033.14
2019-03-10T05:56:41.527Z,100012.92
2019-03-10T05:59:13.402Z,100016.35
2019-03-10T06:01:45.268Z,100017.59
2019-03-10T06:04:17.164Z,100014.95
2019-03-10T06:06:49.077Z,100010.52
2019-03-10T06:09:21.121Z,100010.05
2019-03-10T06:11:53.110Z,100008.22
2019-03-10T06:14:24.979Z,99995.00
2019-03-10T06:16:56.971Z,99994.06
2019-03-10T06:19:30.693Z,99994.44
2019-03-10T06:22:03.903Z,99995.64
2019-03-10T06:24:35.835Z,99992.03
2019-03-10T06:27:09.605Z,99981.38
2019-03-10T06:29:44.825Z,99986.94
2019-03-10T06:32:18.342Z,99978.19
2019-03-10T06:34:55.324Z,99972.47
2019-03-10T06:37:27.789Z,99962.39
2019-03-10T06:39:59.852Z,99963.15
2019-03-10T06:42:31.701Z,99955.59
2019-03-10T06:45:03.705Z,99953.77
2019-03-10T06:47:35.793Z,99933.17
2019-03-10T06:50:09.130Z,99938.85
2019-03-10T06:52:41.177Z,99925.16
2019-03-10T06:55:13.335Z,99924.87
2019-03-10T06:57:48.369Z,99915.78
2019-03-10T07:00:20.531Z,99907.19
2019-03-10T07:02:52.577Z,99904.56
2019-03-10T07:05:24.481Z,99906.00
2019-03-10T07:07:58.137Z,99903.58
2019-03-10T07:10:32.753Z,99895.20
2019-03-10T07:13:05.614Z,99886.51
2019-03-10T07:15:40.299Z,99892.36
2019-03-10T07:18:14.852Z,99893.97
2019-03-10T07:20:46.697Z,99889.55
2019-03-10T07:23:20.234Z,99884.80
2019-03-10T07:26:08.062Z,99886.17
2019-03-10T07:28:57.723Z,99883.73
2019-03-10T07:31:44.764Z,99878.64
2019-03-10T07:34:50.764Z,99872.27
2019-03-10T07:37:53.792Z,99873.22
2019-03-10T07:40:44.491Z,99875.16
2019-03-10T07:43:33.810Z,99869.05
2019-03-10T07:46:23.185Z,99860.52
2019-03-10T07:49:29.000Z,99855.23
2019-03-10T07:52:35.166Z,99854.89
2019-03-10T07:55:32.148Z,99846.30
2019-03-10T07:58:17.638Z,99837.69
2019-03-10T08:01:07.009Z,99835.42
2019-03-10T08:04:06.893Z,99827.18
2019-03-10T08:06:49.204Z,99828.31
2019-03-10T08:09:46.648Z,99829.05
2019-03-10T08:12:26.816Z,99825.92
2019-03-10T08:15:16.569Z,99817.75
2019-03-10T08:18:14.633Z,99815.16
2019-03-10T08:20:58.623Z,99816.06
2019-03-10T08:24:00.554Z,99820.52
2019-03-10T08:27:01.160Z,99814.51
2019-03-10T08:48:40.944Z,99789.50
2019-03-10T08:51:30.453Z,99775.20
2019-03-10T08:54:16.818Z,99761.01
2019-03-10T08:57:04.931Z,99746.97
2019-03-10T08:59:57.164Z,99744.13
2019-03-10T09:03:00.307Z,99739.71
2019-03-10T09:05:51.186Z,99739.61
2019-03-10T09:08:40.637Z,99730.29
2019-03-10T09:11:35.620Z,99727.76
2019-03-10T09:14:35.533Z,99719.73
2019-03-10T09:17:29.304Z,99734.18
2019-03-10T09:20:25.800Z,99713.10
2019-03-10T09:23:09.836Z,99722.64
2019-03-10T09:26:03.388Z,99713.66
2019-03-10T09:28:44.872Z,99703.91
2019-03-10T09:31:44.532Z,99697.25
2019-03-10T09:34:28.064Z,99692.27
2019-03-10T09:37:21.834Z,99692.92
2019-03-10T09:40:22.600Z,99686.39
2019-03-10T09:43:11.868Z,99686.63
2019-03-10T09:45:56.004Z,99674.82
2019-03-10T09:48:45.517Z,99673.48
2019-03-10T09:51:38.404Z,99673.00
2019-03-10T09:54:26.355Z,99670.13
2019-03-10T09:57:13.890Z,99663.05
2019-03-10T10:00:07.601Z,99658.47
2019-03-10T10:03:10.922Z,99655.65
2019-03-10T10:06:04.595Z,99651.41
2019-03-10T10:08:54.589Z,99649.73
2019-03-10T10:12:12.899Z,99637.33
2019-03-10T10:14:52.848Z,99648.45
2019-03-10T10:17:44.056Z,99643.75
2019-03-10T10:20:24.032Z,99644.38
2019-03-10T10:23:14.349Z,99630.56
2019-03-10T10:26:10.915Z,99647.70
2019-03-10T10:28:59.783Z,99645.88
2019-03-10T10:31:56.757Z,99639.53
2019-03-10T10:34:40.659Z,99640.46
2019-03-10T10:37:26.569Z,99632.50
2019-03-10T10:40:16.583Z,99625.55
2019-03-10T10:43:05.705Z,99622.00
2019-03-10T10:46:05.451Z,99615.28
2019-03-10T10:48:58.866Z,99605.53
2019-03-10T10:51:54.651Z,99598.11
2019-03-10T10:55:00.747Z,99599.94
2019-03-10T10:57:51.591Z,99587.33
2019-03-10T11:00:58.555Z,99579.46
2019-03-10T11:04:05.016Z,99574.98
2019-03-10T11:07:00.232Z,99569.40
2019-03-10T11:10:04.234Z,99555.75
2019-03-10T11:13:31.801Z,99555.93
2019-03-10T11:16:20.319Z,99543.37
2019-03-10T11:19:04.859Z,99545.65
2019-03-10T11:21:58.901Z,99537.02
2019-03-10T11:24:36.143Z,99525.12
2019-03-10T11:27:26.657Z,99517.91
2019-03-10T11:30:22.119Z,99512.27
2019-03-10T11:33:18.834Z,99495.54
2019-03-10T11:36:02.888Z,99488.69
2019-03-10T11:38:44.647Z,99477.30
2019-03-10T11:41:45.409Z,99470.18
2019-03-10T11:44:36.576Z,99476.97
2019-03-10T11:47:30.801Z,99475.16
2019-03-10T11:50:21.089Z,99463.91
2019-03-10T11:53:26.367Z,99451.25
2019-03-10T12:01:04.503Z,99429.08
2019-03-10T12:04:06.469Z,99421.16
2019-03-10T12:07:10.633Z,99416.69
2019-03-10T12:09:45.517Z,99408.69
2019-03-10T12:12:23.505Z,99404.64
2019-03-10T12:15:01.128Z,99406.41
2019-03-10T12:22:19.728Z,99386.75
2019-03-10T12:25:28.872Z,99368.33
2019-03-10T12:27:57.336Z,99357.98
2019-03-10T12:30:37.610Z,99354.68
2019-03-10T12:33:09.715Z,99354.58
2019-03-10T12:35:46.104Z,99339.80
2019-03-10T12:38:21.061Z,99327.28
2019-03-10T12:40:53.663Z,99308.03
2019-03-10T12:43:28.908Z,99302.80
2019-03-10T12:46:03.952Z,99295.81
2019-03-10T12:48:40.378Z,99270.67
2019-03-10T12:51:19.175Z,99254.37
2019-03-10T12:53:54.570Z,99237.02
2019-03-10T12:56:30.552Z,99223.56
2019-03-10T12:59:04.633Z,99212.40
2019-03-10T13:01:39.598Z,99205.29
2019-03-10T13:04:13.238Z,99201.45
2019-03-10T13:06:47.459Z,99210.71
2019-03-10T13:09:19.550Z,99209.23
2019-03-10T13:11:52.781Z,99212.81
2019-03-10T13:14:24.959Z,99199.39
2019-03-10T13:16:57.163Z,99182.70
2019-03-10T13:19:31.913Z,99169.87
2019-03-10T13:22:04.031Z,99162.20
2019-03-10T13:24:37.800Z,99160.92
2019-03-10T13:27:10.410Z,99155.15
2019-03-10T13:29:44.355Z,99149.20
2019-03-10T13:32:16.546Z,99139.82
2019-03-10T13:34:48.712Z,99136.23
2019-03-10T13:37:53.963Z,99123.37
2019-03-10T13:40:21.665Z,99122.70
2019-03-10T13:42:58.430Z,99104.02
2019-03-10T13:45:39.537Z,99096.48
2019-03-10T13:48:18.338Z,99097.44
2019-03-10T13:50:58.918Z,99088.88
2019-03-10T13:53:55.662Z,99078.59
2019-03-10T14:12:44.040Z,99031.15
2019-03-10T14:15:28.039Z,99029.20
2019-03-10T14:18:35.038Z,99032.54
2019-03-10T14:21:18.130Z,99030.55
2019-03-10T14:23:53.539Z,99026.17
2019-03-10T14:26:34.929Z,99018.73
2019-03-10T14:29:14.339Z,99010.34
2019-03-10T14:31:57.722Z,98996.88
2019-03-10T14:34:30.967Z,98980.33
2019-03-10T14:37:13.640Z,98976.12
2019-03-10T14:39:55.360Z,98969.34
2019-03-10T14:42:37.007Z,98967.17
2019-03-10T14:45:17.864Z,98953.86
2019-03-10T14:47:53.203Z,98954.64
2019-03-10T14:50:25.557Z,98944.70
2019-03-10T14:53:37.713Z,98948.42
2019-03-10T14:56:05.745Z,98950.27
2019-03-10T14:58:43.347Z,98951.33
2019-03-10T15:01:26.720Z,98944.99
2019-03-10T15:04:04.760Z,98943.27
2019-03-10T15:06:39.819Z,98935.99
2019-03-10T15:09:19.935Z,98920.27
2019-03-10T15:12:02.539Z,98916.12
2019-03-10T15:14:49.177Z,98911.81
2019-03-10T15:17:29.017Z,98898.35
2019-03-10T15:20:08.801Z,98899.58
2019-03-10T15:22:41.313Z,98903.36
2019-03-10T15:25:14.554Z,98892.09
2019-03-10T15:27:50.305Z,98883.45
2019-03-10T15:30:22.506Z,98888.04
2019-03-10T15:33:22.951Z,98882.03
2019-03-10T15:35:56.820Z,98876.05
2019-03-10T15:38:28.964Z,98899.62
2019-03-10T15:41:01.225Z,98890.80
2019-03-10T15:43:44.197Z,98891.95
2019-03-10T15:46:19.691Z,98883.54
2019-03-10T15:48:51.819Z,98883.94
2019-03-10T15:51:23.885Z,98883.00
2019-03-10T15:54:19.695Z,98874.00
2019-03-10T15:56:59.429Z,98865.50
2019-03-10T15:59:35.838Z,98873.02
2019-03-10T16:02:07.058Z,98882.43
2019-03-10T16:04:40.436Z,98869.38
2019-03-10T16:07:20.389Z,98871.59
2019-03-10T16:09:56.007Z,98858.41
2019-03-10T16:12:28.571Z,98854.23
2019-03-10T16:15:15.174Z,98860.09
2019-03-10T16:17:49.530Z,98859.50
2019-03-10T16:20:23.521Z,98852.63
2019-03-10T16:22:57.869Z,98865.23
2019-03-10T16:25:43.121Z,98845.19
2019-03-10T16:28:28.110Z,98835.94
2019-03-10T16:31:02.246Z,98840.87
2019-03-10T16:33:34.834Z,98854.09
2019-03-10T16:36:14.669Z,98855.95
2019-03-10T16:38:49.568Z,98848.47
2019-03-10T16:41:23.803Z,98839.57
2019-03-10T16:44:49.875Z,98838.41
2019-03-10T16:47:36.862Z,98836.34
2019-03-10T16:50:27.369Z,98839.81
2019-03-10T16:59:48.337Z,98828.16
2019-03-10T17:02:20.731Z,98816.79
2019-03-10T17:04:52.925Z,98802.53
2019-03-10T17:07:26.275Z,98799.84
2019-03-10T17:09:58.518Z,98811.08
2019-03-10T17:12:56.092Z,98791.95
2019-03-10T17:15:28.338Z,98797.95
2019-03-10T17:18:01.030Z,98801.97
2019-03-10T17:20:40.689Z,98794.54
2019-03-10T17:23:19.112Z,98788.11
2019-03-10T17:25:56.629Z,98786.06
2019-03-10T17:28:38.005Z,98790.23
2019-03-10T17:31:28.034Z,98780.72
2019-03-10T17:34:00.536Z,98765.27
2019-03-10T17:36:40.884Z,98768.52
2019-03-10T17:39:24.610Z,98769.88
2019-03-10T17:42:00.243Z,98762.73
2019-03-10T17:44:41.230Z,98756.97
2019-03-10T17:47:26.808Z,98754.39
2019-03-10T17:50:00.522Z,98754.44
2019-03-10T17:52:41.727Z,98747.49
2019-03-10T17:55:19.426Z,98746.67
2019-03-10T17:58:12.432Z,98745.05
2019-03-10T18:00:46.695Z,98750.36
2019-03-10T18:03:19.901Z,98771.59
2019-03-10T18:05:56.168Z,98761.01
2019-03-10T18:08:31.855Z,98756.42
2019-03-10T18:11:06.933Z,98751.39
2019-03-10T18:13:40.153Z,98744.14
2019-03-10T18:16:12.360Z,98743.27
2019-03-10T18:18:49.704Z,98730.98
2019-03-10T18:21:30.540Z,98725.78
2019-03-10T18:24:12.748Z,98739.52
2019-03-10T18:26:52.786Z,98737.74
2019-03-10T18:29:31.406Z,98748.71
2019-03-10T18:32:03.723Z,98750.22
2019-03-10T18:34:41.252Z,98710.17
2019-03-10T18:37:14.072Z,98708.77
2019-03-10T18:39:47.715Z,98706.73
2019-03-10T18:42:33.624Z,98718.92
2019-03-10T18:45:09.149Z,98715.34
2019-03-10T18:47:43.085Z,98701.62
2019-03-10T18:50:17.064Z,98705.81
2019-03-10T18:52:49.635Z,98711.53
2019-03-10T18:55:25.816Z,98709.30
2019-03-10T18:57:58.822Z,98713.63
2019-03-10T19:00:31.072Z,98716.85
2019-03-10T19:03:03.159Z,98717.27
2019-03-10T19:05:42.484Z,98730.79
2019-03-10T19:08:12.236Z,98740.16
2019-03-10T19:10:47.707Z,98743.58
2019-03-10T19:13:19.873Z,98749.95
2019-03-10T19:15:55.550Z,98745.40
2019-03-10T19:18:31.636Z,98750.08
2019-03-10T19:21:05.674Z,98763.47
2019-03-10T19:23:41.593Z,98760.39
2019-03-10T19:26:28.562Z,98772.00
2019-03-10T19:28:55.538Z,98784.78
2019-03-10T19:31:36.278Z,98784.73
2019-03-10T19:34:15.539Z,98792.18
2019-03-10T19:36:56.589Z,98794.63
2019-03-10T19:39:31.084Z,98800.30
2019-03-10T19:42:28.974Z,98785.09
2019-03-10T19:45:01.519Z,98809.69
2019-03-10T19:47:34.925Z,98818.38
2019-03-10T19:50:10.236Z,98817.05
2019-03-10T19:52:42.934Z,98827.47
2019-03-10T19:55:16.352Z,98831.23
2019-03-10T19:57:49.376Z,98829.23
2019-03-10T20:00:22.482Z,98829.43
2019-03-10T20:02:56.366Z,98840.39
2019-03-10T20:05:28.991Z,98831.18
2019-03-10T20:08:04.051Z,98827.99
2019-03-10T20:10:37.227Z,98828.23
2019-03-10T20:13:09.680Z,98838.97
2019-03-10T20:15:43.803Z,98835.94
2019-03-10T20:18:15.873Z,98824.44
2019-03-10T20:20:48.031Z,98813.44
2019-03-10T20:23:20.114Z,98817.69
2019-03-10T20:29:39.728Z,98820.42
2019-03-10T20:32:14.151Z,98807.94
2019-03-10T20:34:46.692Z,98823.91
2019-03-10T20:37:18.927Z,98811.70
2019-03-10T20:39:51.503Z,98815.78
2019-03-10T20:42:25.339Z,98822.05
2019-03-10T20:44:57.659Z,98813.76
2019-03-10T20:47:29.767Z,98823.14
2019-03-10T20:50:01.946Z,98820.69
2019-03-10T20:52:35.599Z,98830.40
2019-03-10T20:55:07.814Z,98848.63
2019-03-10T20:57:40.193Z,98850.41
2019-03-10T21:00:17.755Z,98866.89
2019-03-10T21:02:51.355Z,98893.98
2019-03-10T21:05:23.471Z,98940.36
2019-03-10T21:07:58.675Z,98983.89
2019-03-10T21:10:30.814Z,99005.66
2019-03-10T21:13:05.364Z,99062.95
2019-03-10T21:15:40.629Z,99079.11
2019-03-10T21:18:12.456Z,99117.21
2019-03-10T21:20:50.966Z,99145.45
2019-03-10T21:23:23.607Z,99177.11
2019-03-10T21:25:55.742Z,99196.80
2019-03-10T21:28:34.742Z,99236.06
2019-03-10T21:31:11.241Z,99257.55
2019-03-10T21:33:43.329Z,99302.50
2019-03-10T21:36:21.218Z,99348.65
2019-03-10T21:38:58.305Z,99346.97
2019-03-10T21:41:38.602Z,99396.17
2019-03-10T21:44:26.227Z,99429.30
2019-03-10T21:46:53.852Z,99464.08
2019-03-10T21:49:32.198Z,99490.16
2019-03-10T21:52:07.019Z,99492.34
2019-03-10T21:54:40.859Z,99527.95
2019-03-10T21:57:15.476Z,99543.59
2019-03-10T21:59:48.852Z,99565.74
2019-03-10T22:02:20.923Z,99592.65
2019-03-10T22:04:54.538Z,99608.73
2019-03-10T22:07:43.604Z,99626.13
2019-03-10T22:10:26.331Z,99653.48
2019-03-10T22:12:54.286Z,99661.74
2019-03-10T22:15:28.935Z,99680.41
2019-03-10T22:18:06.474Z,99684.34
2019-03-10T22:20:45.009Z,99698.23
2019-03-10T22:23:20.166Z,99703.02
2019-03-10T22:26:00.650Z,99722.58
2019-03-10T22:28:43.224Z,99725.19
2019-03-10T22:31:17.048Z,99747.32
2019-03-10T22:33:56.445Z,99767.78
2019-03-10T22:36:36.770Z,99778.66
2019-03-10T22:39:11.496Z,99782.55
2019-03-10T22:41:45.158Z,99794.30
2019-03-10T22:44:19.441Z,99809.95
2019-03-10T22:46:52.654Z,99807.78
2019-03-10T22:49:24.800Z,99823.44
2019-03-10T22:51:56.741Z,99826.91
2019-03-10T22:54:28.786Z,99827.34
2019-03-10T22:57:04.707Z,99841.69
2019-03-10T22:59:37.989Z,99843.42
2019-03-10T23:02:09.930Z,99853.45
2019-03-10T23:04:46.536Z,99856.92
2019-03-10T23:07:18.541Z,99861.29
2019-03-10T23:09:50.478Z,99863.48
2019-03-10T23:12:24.227Z,99870.44
2019-03-10T23:14:57.665Z,99882.19
2019-03-10T23:17:34.564Z,99896.11
2019-03-10T23:20:09.756Z,99899.16
2019-03-10T23:22:41.710Z,99896.14
2019-03-10T23:25:14.637Z,99910.05
2019-03-10T23:27:46.585Z,99925.73
2019-03-10T23:30:18.749Z,99927.91
2019-03-10T23:32:51.242Z,99942.70
2019-03-10T23:35:23.393Z,99945.30
2019-03-10T23:37:55.285Z,99952.27
2019-03-10T23:40:27.173Z,99960.98
2019-03-10T23:42:59.249Z,99967.52
2019-03-10T23:45:31.138Z,99972.25
2019-03-10T23:48:02.985Z,99973.55
2019-03-10T23:50:34.917Z,99984.84
2019-03-10T23:53:14.097Z,99984.44
2019-03-10T23:55:47.669Z,99989.26
2019-03-10T23:58:19.714Z,99990.98
